N5693P KPKV-KSGR
Flight info
| Callsign | N5693P |
|---|---|
| Flight time | 0h 35m |
| Altitude | 5500 |
| Route | DCT |
| Aircraft | PA24/L-SDGRY/S |
Departure
| Time | 2026-05-04 02:09 |
|---|---|
| Airport | Calhoun County Airport (KPKV) |
Arrival
| Time | 2026-05-04 02:45 |
|---|---|
| Airport | Sugar Land Regional Airport (KSGR) |
| Time | Latitude | Longitude | Altitude | Speed | Heading |
|---|---|---|---|---|---|
| 2026-05-04 01:53 | 28.65205 | -96.68260 | 35 ft | 0 kts | 147° |
| 2026-05-04 02:01 | 28.65201 | -96.68255 | 35 ft | 2 kts | 111° |
| 2026-05-04 02:02 | 28.65210 | -96.68218 | 35 ft | 7 kts | 57° |
| 2026-05-04 02:02 | 28.65237 | -96.68195 | 35 ft | 5 kts | 337° |
| 2026-05-04 02:02 | 28.65263 | -96.68206 | 35 ft | 5 kts | 11° |
| 2026-05-04 02:02 | 28.65289 | -96.68174 | 35 ft | 6 kts | 50° |
| 2026-05-04 02:03 | 28.65321 | -96.68180 | 34 ft | 6 kts | 324° |
| 2026-05-04 02:03 | 28.65365 | -96.68216 | 34 ft | 9 kts | 324° |
| 2026-05-04 02:03 | 28.65424 | -96.68264 | 35 ft | 11 kts | 326° |
| 2026-05-04 02:03 | 28.65491 | -96.68318 | 35 ft | 12 kts | 324° |
| 2026-05-04 02:04 | 28.65564 | -96.68377 | 35 ft | 14 kts | 324° |
| 2026-05-04 02:04 | 28.65646 | -96.68444 | 35 ft | 15 kts | 324° |
| 2026-05-04 02:04 | 28.65734 | -96.68515 | 35 ft | 16 kts | 324° |
| 2026-05-04 02:04 | 28.65823 | -96.68586 | 35 ft | 14 kts | 325° |
| 2026-05-04 02:05 | 28.65881 | -96.68633 | 35 ft | 7 kts | 328° |
| 2026-05-04 02:05 | 28.65906 | -96.68643 | 35 ft | 1 kts | 6° |
| 2026-05-04 02:05 | 28.65907 | -96.68643 | 35 ft | 0 kts | 8° |
| 2026-05-04 02:08 | 28.65927 | -96.68633 | 35 ft | 11 kts | 45° |
| 2026-05-04 02:08 | 28.65939 | -96.68568 | 34 ft | 5 kts | 123° |
| 2026-05-04 02:08 | 28.65878 | -96.68515 | 35 ft | 32 kts | 144° |
| 2026-05-04 02:08 | 28.65521 | -96.68223 | 90 ft | 78 kts | 142° |
| 2026-05-04 02:09 | 28.65034 | -96.67831 | 243 ft | 94 kts | 144° |
| 2026-05-04 02:09 | 28.64626 | -96.67254 | 521 ft | 96 kts | 106° |
| 2026-05-04 02:09 | 28.64748 | -96.66509 | 804 ft | 101 kts | 55° |
| 2026-05-04 02:09 | 28.65419 | -96.66196 | 1046 ft | 116 kts | 14° |
| 2026-05-04 02:10 | 28.66244 | -96.66008 | 1312 ft | 123 kts | 17° |
| 2026-05-04 02:10 | 28.67083 | -96.65775 | 1577 ft | 126 kts | 19° |
| 2026-05-04 02:10 | 28.67905 | -96.65484 | 1910 ft | 121 kts | 30° |
| 2026-05-04 02:10 | 28.68592 | -96.64951 | 2214 ft | 118 kts | 45° |
| 2026-05-04 02:11 | 28.69241 | -96.64375 | 2496 ft | 118 kts | 41° |
| 2026-05-04 02:11 | 28.69880 | -96.63809 | 2776 ft | 116 kts | 45° |
| 2026-05-04 02:11 | 28.70490 | -96.63227 | 3048 ft | 114 kts | 47° |
| 2026-05-04 02:11 | 28.71073 | -96.62585 | 3246 ft | 119 kts | 50° |
| 2026-05-04 02:12 | 28.71649 | -96.61901 | 3483 ft | 118 kts | 51° |
| 2026-05-04 02:12 | 28.72195 | -96.61254 | 3794 ft | 112 kts | 47° |
| 2026-05-04 02:12 | 28.72751 | -96.60651 | 4090 ft | 108 kts | 48° |
| 2026-05-04 02:12 | 28.73289 | -96.60056 | 4340 ft | 110 kts | 43° |
| 2026-05-04 02:13 | 28.73873 | -96.59482 | 4581 ft | 113 kts | 43° |
| 2026-05-04 02:13 | 28.74444 | -96.58905 | 4915 ft | 104 kts | 43° |
| 2026-05-04 02:13 | 28.74971 | -96.58364 | 5210 ft | 101 kts | 41° |
| 2026-05-04 02:13 | 28.75507 | -96.57817 | 5393 ft | 111 kts | 41° |
| 2026-05-04 02:14 | 28.76097 | -96.57166 | 5479 ft | 127 kts | 43° |
| 2026-05-04 02:14 | 28.76764 | -96.56421 | 5479 ft | 143 kts | 44° |
| 2026-05-04 02:14 | 28.77482 | -96.55593 | 5530 ft | 149 kts | 45° |
| 2026-05-04 02:14 | 28.78232 | -96.54735 | 5532 ft | 156 kts | 44° |
| 2026-05-04 02:15 | 28.78999 | -96.53866 | 5523 ft | 159 kts | 43° |
| 2026-05-04 02:15 | 28.79809 | -96.53002 | 5515 ft | 160 kts | 41° |
| 2026-05-04 02:15 | 28.80642 | -96.52150 | 5515 ft | 161 kts | 41° |
| 2026-05-04 02:15 | 28.81488 | -96.51296 | 5484 ft | 163 kts | 40° |
| 2026-05-04 02:16 | 28.82337 | -96.50454 | 5497 ft | 161 kts | 40° |
| 2026-05-04 02:16 | 28.83173 | -96.49611 | 5514 ft | 160 kts | 40° |
| 2026-05-04 02:16 | 28.84016 | -96.48774 | 5519 ft | 160 kts | 41° |
| 2026-05-04 02:16 | 28.84836 | -96.47908 | 5521 ft | 161 kts | 43° |
| 2026-05-04 02:17 | 28.85645 | -96.47026 | 5518 ft | 161 kts | 43° |
| 2026-05-04 02:17 | 28.86453 | -96.46144 | 5519 ft | 161 kts | 43° |
| 2026-05-04 02:17 | 28.87268 | -96.45267 | 5519 ft | 161 kts | 42° |
| 2026-05-04 02:17 | 28.88089 | -96.44394 | 5519 ft | 161 kts | 42° |
| 2026-05-04 02:18 | 28.88901 | -96.43537 | 5521 ft | 161 kts | 41° |
| 2026-05-04 02:18 | 28.89733 | -96.42677 | 5522 ft | 161 kts | 42° |
| 2026-05-04 02:18 | 28.90561 | -96.41807 | 5523 ft | 162 kts | 42° |
| 2026-05-04 02:18 | 28.91391 | -96.40936 | 5523 ft | 162 kts | 42° |
| 2026-05-04 02:19 | 28.92219 | -96.40064 | 5523 ft | 162 kts | 42° |
| 2026-05-04 02:19 | 28.93049 | -96.39191 | 5521 ft | 162 kts | 41° |
| 2026-05-04 02:19 | 28.93879 | -96.38315 | 5523 ft | 162 kts | 42° |
| 2026-05-04 02:19 | 28.94706 | -96.37436 | 5523 ft | 162 kts | 42° |
| 2026-05-04 02:20 | 28.95529 | -96.36572 | 5521 ft | 163 kts | 42° |
| 2026-05-04 02:20 | 28.96360 | -96.35694 | 5520 ft | 163 kts | 41° |
| 2026-05-04 02:20 | 28.97192 | -96.34821 | 5523 ft | 162 kts | 41° |
| 2026-05-04 02:20 | 28.98026 | -96.33945 | 5522 ft | 163 kts | 41° |
| 2026-05-04 02:21 | 28.98860 | -96.33073 | 5520 ft | 163 kts | 41° |
| 2026-05-04 02:21 | 28.99691 | -96.32198 | 5520 ft | 163 kts | 42° |
| 2026-05-04 02:21 | 29.00517 | -96.31316 | 5520 ft | 163 kts | 42° |
| 2026-05-04 02:21 | 29.01346 | -96.30437 | 5523 ft | 163 kts | 41° |
| 2026-05-04 02:22 | 29.02184 | -96.29562 | 5525 ft | 163 kts | 41° |
| 2026-05-04 02:22 | 29.03008 | -96.28697 | 5527 ft | 163 kts | 43° |
| 2026-05-04 02:22 | 29.03829 | -96.27807 | 5526 ft | 163 kts | 41° |
| 2026-05-04 02:22 | 29.04661 | -96.26927 | 5525 ft | 163 kts | 41° |
| 2026-05-04 02:23 | 29.05492 | -96.26046 | 5526 ft | 163 kts | 41° |
| 2026-05-04 02:23 | 29.06341 | -96.25187 | 5526 ft | 163 kts | 40° |
| 2026-05-04 02:23 | 29.07194 | -96.24333 | 5534 ft | 163 kts | 40° |
| 2026-05-04 02:23 | 29.08031 | -96.23459 | 5535 ft | 163 kts | 42° |
| 2026-05-04 02:24 | 29.08857 | -96.22570 | 5534 ft | 163 kts | 42° |
| 2026-05-04 02:24 | 29.09676 | -96.21673 | 5536 ft | 163 kts | 43° |
| 2026-05-04 02:24 | 29.10491 | -96.20767 | 5536 ft | 163 kts | 42° |
| 2026-05-04 02:24 | 29.11328 | -96.19890 | 5539 ft | 163 kts | 40° |
| 2026-05-04 02:25 | 29.12164 | -96.19018 | 5539 ft | 163 kts | 41° |
| 2026-05-04 02:25 | 29.12992 | -96.18133 | 5538 ft | 163 kts | 41° |
| 2026-05-04 02:25 | 29.13823 | -96.17247 | 5540 ft | 163 kts | 42° |
| 2026-05-04 02:25 | 29.14648 | -96.16380 | 5539 ft | 163 kts | 42° |
| 2026-05-04 02:26 | 29.15477 | -96.15490 | 5542 ft | 163 kts | 42° |
| 2026-05-04 02:26 | 29.16312 | -96.14610 | 5542 ft | 163 kts | 41° |
| 2026-05-04 02:26 | 29.17152 | -96.13735 | 5542 ft | 163 kts | 41° |
| 2026-05-04 02:26 | 29.17983 | -96.12845 | 5541 ft | 163 kts | 42° |
| 2026-05-04 02:27 | 29.18822 | -96.11965 | 5539 ft | 163 kts | 41° |
| 2026-05-04 02:27 | 29.19669 | -96.11100 | 5541 ft | 163 kts | 41° |
| 2026-05-04 02:27 | 29.20509 | -96.10220 | 5541 ft | 163 kts | 42° |
| 2026-05-04 02:27 | 29.21327 | -96.09317 | 5542 ft | 163 kts | 43° |
| 2026-05-04 02:28 | 29.22147 | -96.08418 | 5542 ft | 163 kts | 43° |
| 2026-05-04 02:28 | 29.22957 | -96.07526 | 5542 ft | 164 kts | 43° |
| 2026-05-04 02:28 | 29.23780 | -96.06626 | 5542 ft | 164 kts | 42° |
| 2026-05-04 02:28 | 29.24621 | -96.05739 | 5542 ft | 164 kts | 41° |
| 2026-05-04 02:29 | 29.25475 | -96.04877 | 5542 ft | 163 kts | 40° |
| 2026-05-04 02:29 | 29.26337 | -96.04023 | 5540 ft | 163 kts | 40° |
| 2026-05-04 02:29 | 29.26900 | -96.03450 | 5543 ft | 163 kts | 41° |
| 2026-05-04 02:29 | 29.28006 | -96.02254 | 5541 ft | 163 kts | 43° |
| 2026-05-04 02:30 | 29.28556 | -96.01664 | 5538 ft | 163 kts | 42° |
| 2026-05-04 02:30 | 29.29387 | -96.00776 | 5539 ft | 163 kts | 42° |
| 2026-05-04 02:30 | 29.30477 | -95.99584 | 5538 ft | 164 kts | 43° |
| 2026-05-04 02:30 | 29.31031 | -95.98971 | 5536 ft | 163 kts | 43° |
| 2026-05-04 02:31 | 29.31861 | -95.98083 | 5537 ft | 164 kts | 41° |
| 2026-05-04 02:31 | 29.32700 | -95.97196 | 5535 ft | 164 kts | 42° |
| 2026-05-04 02:31 | 29.33543 | -95.96322 | 5535 ft | 163 kts | 41° |
| 2026-05-04 02:31 | 29.34378 | -95.95441 | 5534 ft | 163 kts | 42° |
| 2026-05-04 02:32 | 29.35218 | -95.94561 | 5533 ft | 164 kts | 41° |
| 2026-05-04 02:32 | 29.36057 | -95.93678 | 5533 ft | 163 kts | 42° |
| 2026-05-04 02:32 | 29.36882 | -95.92783 | 5533 ft | 163 kts | 42° |
| 2026-05-04 02:32 | 29.37709 | -95.91887 | 5530 ft | 164 kts | 42° |
| 2026-05-04 02:33 | 29.38523 | -95.91003 | 5531 ft | 162 kts | 43° |
| 2026-05-04 02:33 | 29.39327 | -95.90138 | 5322 ft | 159 kts | 41° |
| 2026-05-04 02:33 | 29.40147 | -95.89279 | 5085 ft | 157 kts | 42° |
| 2026-05-04 02:33 | 29.40946 | -95.88442 | 4843 ft | 156 kts | 41° |
| 2026-05-04 02:34 | 29.41763 | -95.87600 | 4554 ft | 158 kts | 42° |
| 2026-05-04 02:34 | 29.42560 | -95.86762 | 4363 ft | 154 kts | 44° |
| 2026-05-04 02:34 | 29.43343 | -95.85915 | 4112 ft | 155 kts | 44° |
| 2026-05-04 02:34 | 29.44114 | -95.85095 | 3965 ft | 150 kts | 44° |
| 2026-05-04 02:35 | 29.44871 | -95.84259 | 3747 ft | 151 kts | 46° |
| 2026-05-04 02:35 | 29.45634 | -95.83459 | 3524 ft | 148 kts | 44° |
| 2026-05-04 02:35 | 29.46408 | -95.82651 | 3189 ft | 150 kts | 45° |
| 2026-05-04 02:35 | 29.47141 | -95.81853 | 3012 ft | 144 kts | 47° |
| 2026-05-04 02:36 | 29.47830 | -95.81071 | 2972 ft | 137 kts | 48° |
| 2026-05-04 02:36 | 29.48523 | -95.80296 | 2921 ft | 135 kts | 47° |
| 2026-05-04 02:36 | 29.49181 | -95.79587 | 2992 ft | 127 kts | 46° |
| 2026-05-04 02:36 | 29.49827 | -95.78911 | 2980 ft | 126 kts | 45° |
| 2026-05-04 02:37 | 29.50490 | -95.78228 | 2997 ft | 130 kts | 45° |
| 2026-05-04 02:37 | 29.51173 | -95.77522 | 3012 ft | 133 kts | 45° |
| 2026-05-04 02:37 | 29.51889 | -95.76821 | 3010 ft | 137 kts | 43° |
| 2026-05-04 02:37 | 29.52632 | -95.76123 | 3003 ft | 138 kts | 43° |
| 2026-05-04 02:38 | 29.53375 | -95.75422 | 2996 ft | 138 kts | 42° |
| 2026-05-04 02:38 | 29.54125 | -95.74738 | 2991 ft | 138 kts | 43° |
| 2026-05-04 02:38 | 29.54797 | -95.73998 | 2955 ft | 128 kts | 57° |
| 2026-05-04 02:38 | 29.55298 | -95.73194 | 2795 ft | 118 kts | 60° |
| 2026-05-04 02:39 | 29.55741 | -95.72439 | 2609 ft | 110 kts | 62° |
| 2026-05-04 02:39 | 29.56120 | -95.71702 | 2407 ft | 108 kts | 67° |
| 2026-05-04 02:39 | 29.56461 | -95.70932 | 2181 ft | 110 kts | 69° |
| 2026-05-04 02:39 | 29.56778 | -95.70158 | 2029 ft | 104 kts | 72° |
| 2026-05-04 02:40 | 29.57060 | -95.69420 | 1905 ft | 98 kts | 74° |
| 2026-05-04 02:40 | 29.57308 | -95.68695 | 1786 ft | 95 kts | 77° |
| 2026-05-04 02:40 | 29.57514 | -95.67992 | 1650 ft | 90 kts | 80° |
| 2026-05-04 02:40 | 29.57747 | -95.67316 | 1452 ft | 92 kts | 65° |
| 2026-05-04 02:41 | 29.58255 | -95.66846 | 1292 ft | 98 kts | 27° |
| 2026-05-04 02:41 | 29.58945 | -95.66774 | 1143 ft | 103 kts | 353° |
| 2026-05-04 02:41 | 29.59633 | -95.66928 | 1072 ft | 99 kts | 349° |
| 2026-05-04 02:41 | 29.60294 | -95.67098 | 1066 ft | 95 kts | 347° |
| 2026-05-04 02:42 | 29.60933 | -95.67276 | 1073 ft | 95 kts | 347° |
| 2026-05-04 02:42 | 29.61583 | -95.67417 | 1041 ft | 98 kts | 351° |
| 2026-05-04 02:42 | 29.62266 | -95.67539 | 1009 ft | 99 kts | 353° |
| 2026-05-04 02:42 | 29.62930 | -95.67629 | 962 ft | 91 kts | 356° |
| 2026-05-04 02:43 | 29.63548 | -95.67681 | 850 ft | 87 kts | 358° |
| 2026-05-04 02:43 | 29.64119 | -95.67674 | 768 ft | 78 kts | 17° |
| 2026-05-04 02:43 | 29.64577 | -95.67348 | 719 ft | 79 kts | 54° |
| 2026-05-04 02:43 | 29.64773 | -95.66779 | 696 ft | 76 kts | 91° |
| 2026-05-04 02:44 | 29.64640 | -95.66201 | 596 ft | 78 kts | 131° |
| 2026-05-04 02:44 | 29.64186 | -95.65866 | 429 ft | 79 kts | 167° |
| 2026-05-04 02:44 | 29.63682 | -95.65786 | 276 ft | 69 kts | 175° |
| 2026-05-04 02:44 | 29.63233 | -95.65750 | 113 ft | 60 kts | 173° |
| 2026-05-04 02:45 | 29.62903 | -95.65718 | 87 ft | 35 kts | 174° |
| 2026-05-04 02:45 | 29.62745 | -95.65701 | 86 ft | 8 kts | 150° |
| 2026-05-04 02:45 | 29.62729 | -95.65627 | 87 ft | 11 kts | 84° |
| 2026-05-04 02:45 | 29.62724 | -95.65580 | 87 ft | 2 kts | 147° |
| 2026-05-04 02:46 | 29.62681 | -95.65572 | 90 ft | 8 kts | 169° |
| 2026-05-04 02:46 | 29.62668 | -95.65529 | 88 ft | 2 kts | 85° |
| 2026-05-04 02:46 | 29.62673 | -95.65472 | 88 ft | 11 kts | 84° |
| 2026-05-04 02:46 | 29.62677 | -95.65416 | 88 ft | 5 kts | 83° |
| 2026-05-04 02:47 | 29.62682 | -95.65376 | 88 ft | 5 kts | 72° |
| 2026-05-04 02:47 | 29.62702 | -95.65365 | 89 ft | 1 kts | 354° |
| 2026-05-04 02:47 | 29.62703 | -95.65365 | 88 ft | 0 kts | 354° |
| 2026-05-04 02:51 | 29.62704 | -95.65365 | 88 ft | 0 kts | 354° |